Warning: Javascript must be enabled to use all the features on this page!


Page Loading - Please Wait...

Click to hideNews Bulletins

Peak Streamflow for the Nation

USGS 10336780 TROUT CK NR TAHOE VALLEY, CA

El Dorado County, California
Hydrologic Unit Code 16050101
Latitude  38°55'12", Longitude 119°58'17" NAD27
Drainage area 36.7  square miles
Gage datum 6,241.57 feet above NGVD29
Output formats
Table
Graph
Tab-separated file
peakfq (watstore) format
Reselect output format
Water
Year
Date Gage
Height
(feet)
Stream-
flow
(cfs)
1961 1961-06-14 6.70 64.0
1962 1962-06-15 7.45 90.0
1963 1963-02-01 11.14 535
1964 1963-11-15 7.37 57.0
1965 1964-12-24 10.51 411
1966 1966-05-10 7.20 80.0
1967 1967-07-01 9.51 280
1968 1968-02-20 7.27 82.0
1969 1969-06-06 10.01 280
1970 1970-01-21 9.49 250
1971 1971-06-27 9.19 226
1972 1972-06-07 7.57 100
1973 1973-05-31 8.43 176
1974 1974-06-07 8.28 163
1975 1975-06-07 8.88 202
1976 1975-10-26 7.422 97.0
1977 1977-05-29 6.752 50.0
1978 1978-06-09 7.86 126
1979 1979-05-27 7.69 120
1980 1980-01-13 10.24 337
1981 1981-04-30 6.78 62.0
1982 1982-02-16 9.81 298
1983 1983-06-18 10.40 358
1984 1984-05-31 9.02 230
1985 1985-04-15 7.34 100
1986 1986-03-08 11.00 480
1987 1987-04-29   46.0
1988 1988-03-24 6.641,2 42.0
1989 1989-06-03 7.21 93.0
1990 1990-04-16 6.462 40.0
1991 1991-03-04 7.22 91.0
1992 1991-10-26 6.92 71.0
1993 1993-05-31 8.39 165
1994 1994-04-20 6.582 47.0
1995 1995-06-26 10.14 319
1996 1996-05-16 9.70 303
1997 1997-01-02 9.33 535
1998 1998-06-22 8.21 229
1999 1999-05-29 8.46 269
2000 2000-02-14 6.66 105
2001 2001-05-12 5.27 44.0
2002 2002-04-15 5.92 69.0
2003 2003-05-30 7.22 142
2004 2004-05-06 5.71 58.0
2005 2005-05-29 7.99 197
2006 2005-12-31 9.68 615
2007 2006-11-14 6.04 62.0
2008 2008-05-19 6.05 65.0
2009 2009-05-20 6.17 73.0
2010 2010-06-08 7.49 174
2011 2011-06-29 8.982 445
2012 2012-01-21 6.69 110
2013 2012-12-02 6.09 71.0
2014 2014-02-09 6.26 89.0
2015 2015-02-09 5.98 58.0
2016 2016-06-08 6.87 131
2017 2017-02-10 9.36 483
2018 2018-04-07 8.34 248
2019 2019-06-16 7.83 230
2020 2020-04-30 6.002 62.3
?
  Peak Gage-Height Qualification Codes.